Thursday, January 18, 2018, 11:02 PM EST
Back to Local

KPBG, Plattsburgh International Airport

Location: Plattsburgh, NY, United States Lat: 44.65
Local Time: 11:02 PM EST ( 4:02 GMT) Lon: -73.467
Time Zone: US/Eastern Elev: 239 ft

Show me the last for .
Show Coded

Time T Td Feel RH Dir Speed Gust Alt SLP Vis Weather Sky Remarks
2018-01-18 21:53 27 18 19 68 220° 7 - 29.92 29.93 10 OVC039 None
2018-01-18 20:53 27 18 22 68 210° 5 - 29.92 29.93 10 OVC042 None
2018-01-18 19:53 27 18 22 68 Variable 5 - 29.93 29.94 10 OVC046 None
2018-01-18 18:53 26 18 22 70 180° 3 - 29.93 29.94 10 OVC044 6-hr Min Temp (7pm): 26.1°F
6-hr Max Temp (7pm): 28.9°F
2018-01-18 17:53 27 18 23 68 220° 3 - 29.92 29.93 10 OVC043 None
2018-01-18 16:53 28 17 - 62 - Calm - 29.92 29.93 10 OVC041 None
2018-01-18 15:53 28 17 23 62 Variable 5 - 29.92 29.93 10 OVC041 None
2018-01-18 14:53 28 17 23 62 Variable 5 - 29.92 29.93 10 OVC041 None
2018-01-18 13:53 28 16 22 60 260° 6 - 29.92 29.93 10 OVC040 None
2018-01-18 12:53 27 17 22 65 Variable 5 - 29.92 29.93 10 OVC041 6-hr Precip Total (1pm): 0.00"
6-hr Min Temp (1pm): 19.0°F
6-hr Max Temp (1pm): 27.0°F
2018-01-18 11:53 25 17 16 71 170° 8 - 29.93 29.94 10 OVC044 None
2018-01-18 10:53 22 16 12 77 170° 9 - 29.95 29.97 10 OVC044 None
2018-01-18 09:53 21 15 11 77 140° 8 - 29.97 29.98 10 OVC044 1-hr Precip Total: Trace
6-hr Precip Total (10am): 0.00"
2018-01-18 08:53 20 15 10 81 170° 8 - 29.97 29.98 9 UP OVC044 1-hr Precip Total: Trace
2018-01-18 07:53 19 14 8 80 150° 9 - 29.97 29.98 10 OVC032 None
2018-01-18 07:29 20 14 11 77 180° 7 - 29.97 - 10 OVC030 None
2018-01-18 06:53 20 13 10 73 160° 8 - 29.97 29.98 10 OVC028 6-hr Min Temp (7am): 17.1°F
6-hr Max Temp (7am): 21.9°F
2018-01-18 06:16 19 13 8 76 160° 9 - 29.98 - 10 OVC029 None
2018-01-18 05:53 19 13 9 76 150° 8 - 29.98 29.99 10 OVC031 None
2018-01-18 05:19 19 12 9 73 170° 8 - 29.98 - 10 OVC031 None
2018-01-18 04:53 19 12 8 73 160° 9 - 29.98 30.00 10 OVC029 None
2018-01-18 04:26 19 12 7 73 160° 10 - 29.99 - 10 OVC029 None
2018-01-18 03:53 20 12 11 70 160° 7 - 30.00 30.02 10 OVC031 None
2018-01-18 03:15 21 13 13 70 180° 6 - 30.01 - 10 OVC031 None
2018-01-18 02:53 21 12 13 67 170° 6 - 30.03 30.04 10 OVC027 None
2018-01-18 01:53 20 10 11 64 200° 7 - 30.04 30.06 10 OVC029 None
2018-01-18 00:53 19 9 14 64 190° 3 - 30.03 30.04 10 FEW065 6-hr Min Temp (1am): 9.0°F
6-hr Max Temp (1am): 21.0°F
2018-01-17 23:53 20 10 4 64 220° 12 20 30.05 30.06 10 FEW070 BKN120 24-hr Min Temp (12am): 8.1°F
24-hr Max Temp (12am): 19.9°F

Support USWX by starting your Amazon purchase here.